createdAt,value
2018-02-20T00:00:55.448Z,23.65
2018-02-20T00:03:25.183Z,24.27
2018-02-20T00:05:54.961Z,25.30
2018-02-20T00:08:24.835Z,25.65
2018-02-20T00:10:54.568Z,24.27
2018-02-20T00:13:24.430Z,26.23
2018-02-20T00:15:54.143Z,24.05
2018-02-20T00:18:23.869Z,25.65
2018-02-20T00:20:53.859Z,25.23
2018-02-20T00:23:23.629Z,21.67
2018-02-20T00:25:53.419Z,21.48
2018-02-20T00:28:24.046Z,25.40
2018-02-20T00:30:53.820Z,24.63
2018-02-20T00:33:23.597Z,26.75
2018-02-20T00:35:53.320Z,24.50
2018-02-20T00:38:23.843Z,22.62
2018-02-20T00:40:53.747Z,22.87
2018-02-20T00:43:23.538Z,22.85
2018-02-20T00:45:53.804Z,24.30
2018-02-20T00:48:23.766Z,23.40
2018-02-20T00:50:54.367Z,23.23
2018-02-20T00:53:24.287Z,21.15
2018-02-20T00:55:53.993Z,21.35
2018-02-20T00:58:23.811Z,26.35
2018-02-20T01:00:53.560Z,21.75
2018-02-20T01:03:23.432Z,22.73
2018-02-20T01:05:53.904Z,24.30
2018-02-20T01:08:23.673Z,24.12
2018-02-20T01:10:53.499Z,25.08
2018-02-20T01:13:23.193Z,23.30
2018-02-20T01:15:52.920Z,25.05
2018-02-20T01:18:22.730Z,22.17
2018-02-20T01:20:52.511Z,18.83
2018-02-20T01:23:23.224Z,23.50
2018-02-20T01:25:53.088Z,23.60
2018-02-20T01:28:22.813Z,20.80
2018-02-20T01:30:52.502Z,21.87
2018-02-20T01:33:22.351Z,21.70
2018-02-20T01:35:53.000Z,22.08
2018-02-20T01:38:22.762Z,22.48
2018-02-20T01:40:52.510Z,22.95
2018-02-20T01:43:22.367Z,21.05
2018-02-20T01:45:52.107Z,25.05
2018-02-20T01:48:21.796Z,24.63
2018-02-20T01:51:05.645Z,25.95
2018-02-20T01:53:35.372Z,25.05
2018-02-20T01:56:05.853Z,25.20
2018-02-20T01:58:35.573Z,24.83
2018-02-20T02:01:05.305Z,23.87
2018-02-20T02:03:35.077Z,24.52
2018-02-20T02:06:06.244Z,25.48
2018-02-20T02:08:37.479Z,27.10
2018-02-20T02:11:07.183Z,28.70
2018-02-20T02:13:36.884Z,25.77
2018-02-20T02:16:06.952Z,25.55
2018-02-20T02:18:36.752Z,25.05
2018-02-20T02:21:06.480Z,25.92
2018-02-20T02:23:36.187Z,25.77
2018-02-20T02:26:05.984Z,27.13
2018-02-20T02:28:35.803Z,26.85
2018-02-20T02:31:05.536Z,24.65
2018-02-20T02:33:35.245Z,24.85
2018-02-20T02:36:05.016Z,26.92
2018-02-20T02:38:34.861Z,27.33
2018-02-20T02:41:05.306Z,26.67
2018-02-20T02:43:35.804Z,26.75
2018-02-20T02:46:05.613Z,28.55
2018-02-20T02:48:35.364Z,26.85
2018-02-20T02:51:05.057Z,26.23
2018-02-20T02:53:34.743Z,26.25
2018-02-20T02:56:05.285Z,26.98
2018-02-20T02:58:35.244Z,21.83
2018-02-20T03:01:04.984Z,23.20
2018-02-20T03:03:34.778Z,22.73
2018-02-20T03:06:04.481Z,24.17
2018-02-20T03:08:34.188Z,23.33
2018-02-20T03:11:04.660Z,25.62
2018-02-20T03:13:34.506Z,24.50
2018-02-20T03:16:04.254Z,26.30
2018-02-20T03:18:33.932Z,28.45
2018-02-20T03:21:03.627Z,27.58
2018-02-20T03:23:33.324Z,25.88
2018-02-20T03:26:03.859Z,25.58
2018-02-20T03:28:34.088Z,25.67
2018-02-20T03:31:03.902Z,26.20
2018-02-20T03:33:33.622Z,26.30
2018-02-20T03:36:03.370Z,26.40
2018-02-20T03:38:33.964Z,25.52
2018-02-20T03:41:04.259Z,25.83
2018-02-20T03:43:34.877Z,25.08
2018-02-20T03:46:04.566Z,26.27
2018-02-20T03:48:34.257Z,23.98
2018-02-20T03:51:03.957Z,23.80
2018-02-20T03:53:34.544Z,23.33
2018-02-20T03:56:04.241Z,23.35
2018-02-20T03:58:33.940Z,23.77
2018-02-20T04:01:04.543Z,23.10
2018-02-20T04:03:34.221Z,23.83
2018-02-20T04:06:03.946Z,23.17
2018-02-20T04:08:33.740Z,23.92
2018-02-20T04:11:04.204Z,22.40
2018-02-20T04:13:33.943Z,25.50
2018-02-20T04:16:03.691Z,20.25
2018-02-20T04:18:33.495Z,22.83
2018-02-20T04:21:03.211Z,21.95
2018-02-20T04:23:32.938Z,22.90
2018-02-20T04:26:02.867Z,24.00
2018-02-20T04:28:32.621Z,22.35
2018-02-20T04:31:02.316Z,21.85
2018-02-20T04:33:32.271Z,24.60
2018-02-20T04:36:02.114Z,26.08
2018-02-20T04:38:32.612Z,25.92
2018-02-20T04:41:02.337Z,24.85
2018-02-20T04:43:32.072Z,22.15
2018-02-20T04:46:01.840Z,22.60
2018-02-20T04:48:31.625Z,23.17
2018-02-20T04:51:01.420Z,23.30
2018-02-20T04:53:31.129Z,21.12
2018-02-20T04:56:00.806Z,27.37
2018-02-20T04:58:31.440Z,24.85
2018-02-20T05:01:01.164Z,22.80
2018-02-20T05:03:30.852Z,27.00
2018-02-20T05:06:00.532Z,26.17
2018-02-20T05:08:30.278Z,27.60
2018-02-20T05:11:00.032Z,27.77
2018-02-20T05:13:29.750Z,27.80
2018-02-20T05:15:59.504Z,29.67
2018-02-20T05:18:30.057Z,26.17
2018-02-20T05:21:00.437Z,28.95
2018-02-20T05:23:30.204Z,29.60
2018-02-20T05:26:00.758Z,29.90
2018-02-20T05:28:30.492Z,31.05
2018-02-20T05:31:01.009Z,31.50
2018-02-20T05:33:31.586Z,29.15
2018-02-20T05:36:01.372Z,29.12
2018-02-20T05:38:37.911Z,32.05
2018-02-20T05:41:07.752Z,32.05
2018-02-20T05:43:38.019Z,30.85
2018-02-20T05:46:07.783Z,32.03
2018-02-20T05:48:37.639Z,33.05
2018-02-20T05:51:07.356Z,32.70
2018-02-20T05:53:37.040Z,32.33
2018-02-20T05:56:07.119Z,33.97
2018-02-20T05:58:37.685Z,32.95
2018-02-20T06:01:07.474Z,31.77
2018-02-20T06:03:37.988Z,31.95
2018-02-20T06:06:07.700Z,29.70
2018-02-20T06:08:37.511Z,30.90
2018-02-20T06:11:07.285Z,30.60
2018-02-20T06:13:37.049Z,33.72
2018-02-20T06:16:06.855Z,32.50
2018-02-20T06:18:37.314Z,33.38
2018-02-20T06:21:07.515Z,32.90
2018-02-20T06:23:38.072Z,43.67
2018-02-20T06:26:07.815Z,30.73
2018-02-20T06:28:37.595Z,31.42
2018-02-20T06:31:08.201Z,30.75
2018-02-20T06:33:37.918Z,31.58
2018-02-20T06:36:07.780Z,30.77
2018-02-20T06:38:38.335Z,27.17
2018-02-20T06:41:09.068Z,29.15
2018-02-20T06:43:38.884Z,31.35
2018-02-20T06:46:08.813Z,30.48
2018-02-20T06:48:39.494Z,34.40
2018-02-20T06:51:10.307Z,30.23
2018-02-20T06:53:40.868Z,32.65
2018-02-20T06:56:12.836Z,33.88
2018-02-20T06:58:43.881Z,29.45
2018-02-20T07:01:14.545Z,32.67
2018-02-20T07:03:45.176Z,33.17
2018-02-20T07:06:16.030Z,26.80
2018-02-20T07:08:46.097Z,31.02
2018-02-20T07:11:16.067Z,32.83
2018-02-20T07:13:46.438Z,31.48
2018-02-20T07:16:16.369Z,30.88
2018-02-20T07:18:46.368Z,30.00
2018-02-20T07:21:16.355Z,32.42
2018-02-20T07:23:46.517Z,32.58
2018-02-20T07:26:17.001Z,33.35
2018-02-20T07:28:46.898Z,33.28
2018-02-20T07:31:17.408Z,32.55
2018-02-20T07:33:47.151Z,33.53
2018-02-20T07:36:17.743Z,32.03
2018-02-20T07:38:47.721Z,32.00
2018-02-20T07:41:18.374Z,31.55
2018-02-20T07:43:48.233Z,33.50
2018-02-20T07:46:18.035Z,33.15
2018-02-20T07:48:47.867Z,32.70
2018-02-20T07:51:17.756Z,34.42
2018-02-20T07:53:48.991Z,32.55
2018-02-20T07:56:18.782Z,31.87
2018-02-20T07:58:48.589Z,32.05
2018-02-20T08:01:18.429Z,33.17
2018-02-20T08:03:49.143Z,30.48
2018-02-20T08:06:19.670Z,31.25
2018-02-20T08:08:50.402Z,32.40
2018-02-20T08:11:20.171Z,31.02
2018-02-20T08:13:49.898Z,30.25
2018-02-20T08:16:19.725Z,31.10
2018-02-20T08:18:49.465Z,28.08
2018-02-20T08:21:20.051Z,28.65
2018-02-20T08:23:50.573Z,28.02
2018-02-20T08:26:20.512Z,31.15
2018-02-20T08:28:50.981Z,29.33
2018-02-20T08:31:20.937Z,29.30
2018-02-20T08:33:50.633Z,30.23
2018-02-20T08:36:20.402Z,29.85
2018-02-20T08:38:50.094Z,28.98
2018-02-20T08:41:19.805Z,29.73
2018-02-20T08:43:49.565Z,28.55
2018-02-20T08:46:19.304Z,29.87
2018-02-20T08:48:49.082Z,29.33
2018-02-20T08:51:18.846Z,28.52
2018-02-20T08:53:48.829Z,29.95
2018-02-20T08:56:18.559Z,31.10
2018-02-20T08:58:48.278Z,27.48
2018-02-20T09:01:17.989Z,28.60
2018-02-20T09:03:47.890Z,29.10
2018-02-20T09:06:17.633Z,27.73
2018-02-20T09:08:47.382Z,29.48
2018-02-20T09:11:17.173Z,29.58
2018-02-20T09:13:46.891Z,30.30
2018-02-20T09:16:16.737Z,30.00
2018-02-20T09:18:46.448Z,31.02
2018-02-20T09:21:16.169Z,32.13
2018-02-20T09:23:46.039Z,29.85
2018-02-20T09:26:15.817Z,30.85
2018-02-20T09:28:45.574Z,31.05
2018-02-20T09:31:15.268Z,30.42
2018-02-20T09:33:45.008Z,30.92
2018-02-20T09:36:15.024Z,31.12
2018-02-20T09:38:44.720Z,30.90
2018-02-20T09:41:14.475Z,28.12
2018-02-20T09:43:44.283Z,29.77
2018-02-20T09:46:13.967Z,27.67
2018-02-20T09:48:43.724Z,24.50
2018-02-20T09:51:13.519Z,30.70
2018-02-20T09:53:43.313Z,29.90
2018-02-20T09:56:13.865Z,28.50
2018-02-20T09:58:43.667Z,28.40
2018-02-20T10:01:13.485Z,32.75
2018-02-20T10:03:43.308Z,30.35
2018-02-20T10:06:13.032Z,31.23
2018-02-20T10:08:42.908Z,31.65
2018-02-20T10:11:12.596Z,32.88
2018-02-20T10:13:43.218Z,31.62
2018-02-20T10:16:12.953Z,33.38
2018-02-20T10:18:42.690Z,32.30
2018-02-20T10:21:13.439Z,34.13
2018-02-20T10:23:44.233Z,33.45
2018-02-20T10:26:13.958Z,33.55
2018-02-20T10:28:43.656Z,33.22
2018-02-20T10:31:14.200Z,32.20
2018-02-20T10:33:43.932Z,30.50
2018-02-20T10:36:13.728Z,33.42
2018-02-20T10:38:43.609Z,28.60
2018-02-20T10:41:13.454Z,30.05
2018-02-20T10:43:43.991Z,31.83
2018-02-20T10:46:14.501Z,27.97
2018-02-20T10:48:44.453Z,30.15
2018-02-20T10:51:15.032Z,26.80
2018-02-20T10:53:44.857Z,26.52
2018-02-20T10:56:14.554Z,25.90
2018-02-20T10:58:45.162Z,24.00
2018-02-20T11:01:14.941Z,25.65
2018-02-20T11:03:44.794Z,25.67
2018-02-20T11:06:14.534Z,22.70
2018-02-20T11:08:44.351Z,23.55
2018-02-20T11:11:14.095Z,24.73
2018-02-20T11:13:44.592Z,22.40
2018-02-20T11:16:14.432Z,23.45
2018-02-20T11:18:44.229Z,23.33
2018-02-20T11:21:14.025Z,22.40
2018-02-20T11:23:44.624Z,24.37
2018-02-20T11:26:14.485Z,24.47
2018-02-20T11:28:45.025Z,26.97
2018-02-20T11:31:15.616Z,27.23
2018-02-20T11:33:46.176Z,27.02
2018-02-20T11:36:15.895Z,27.17
2018-02-20T11:38:45.607Z,27.63
2018-02-20T11:41:16.204Z,26.03
2018-02-20T11:43:45.906Z,24.87
2018-02-20T11:46:16.727Z,25.27
2018-02-20T11:48:46.432Z,26.70
2018-02-20T11:51:16.264Z,25.83
2018-02-20T11:53:46.016Z,24.53
2018-02-20T11:56:15.890Z,25.13
2018-02-20T11:58:45.760Z,24.10
2018-02-20T12:01:15.584Z,23.57
2018-02-20T12:03:45.477Z,23.33
2018-02-20T12:06:15.293Z,22.80
2018-02-20T12:08:45.789Z,23.27
2018-02-20T12:11:16.473Z,21.85
2018-02-20T12:13:46.290Z,22.33
2018-02-20T12:16:16.050Z,23.48
2018-02-20T12:18:45.803Z,22.87
2018-02-20T12:21:16.545Z,22.75
2018-02-20T12:23:47.081Z,22.65
2018-02-20T12:26:16.928Z,23.55
2018-02-20T12:28:46.822Z,21.05
2018-02-20T12:31:16.785Z,21.30
2018-02-20T12:33:46.545Z,23.42
2018-02-20T12:36:16.385Z,22.08
2018-02-20T12:38:46.128Z,22.57
2018-02-20T12:41:17.234Z,23.58
2018-02-20T12:43:47.046Z,24.00
2018-02-20T12:46:16.854Z,23.80
2018-02-20T12:48:46.585Z,21.85
2018-02-20T12:51:16.428Z,21.87
2018-02-20T12:53:47.139Z,21.23
2018-02-20T12:56:17.005Z,22.17
2018-02-20T12:58:46.895Z,22.43
2018-02-20T13:01:16.660Z,21.43
2018-02-20T13:03:46.504Z,20.30
2018-02-20T13:06:16.379Z,19.67
2018-02-20T13:08:46.113Z,19.63
2018-02-20T13:11:15.989Z,18.87
2018-02-20T13:13:46.479Z,18.77
2018-02-20T13:16:16.235Z,17.27
2018-02-20T13:18:48.360Z,15.27
2018-02-20T13:21:18.269Z,15.93
2018-02-20T13:23:48.004Z,15.10
2018-02-20T13:26:17.782Z,16.83
2018-02-20T13:28:47.607Z,18.27
2018-02-20T13:31:17.381Z,18.17
2018-02-20T13:33:47.199Z,20.90
2018-02-20T13:36:17.041Z,22.50
2018-02-20T13:38:46.922Z,19.87
2018-02-20T13:41:17.507Z,19.30
2018-02-20T13:43:47.316Z,20.83
2018-02-20T13:46:30.939Z,21.30
2018-02-20T13:49:00.757Z,20.80
2018-02-20T13:51:31.246Z,21.50
2018-02-20T13:54:01.005Z,21.10
2018-02-20T13:56:30.755Z,21.13
2018-02-20T13:59:00.561Z,21.10
2018-02-20T14:01:31.229Z,19.40
2018-02-20T14:04:01.044Z,20.30
2018-02-20T14:06:30.884Z,19.57
2018-02-20T14:09:00.647Z,18.23
2018-02-20T14:11:30.438Z,17.43
2018-02-20T14:14:00.338Z,17.17
2018-02-20T14:16:30.849Z,18.13
2018-02-20T14:19:00.625Z,16.93
2018-02-20T14:21:30.551Z,15.73
2018-02-20T14:24:00.374Z,16.43
2018-02-20T14:26:30.644Z,17.20
2018-02-20T14:29:00.538Z,17.50
2018-02-20T14:31:30.342Z,18.10
2018-02-20T14:34:00.256Z,16.70
2018-02-20T14:36:30.840Z,18.07
2018-02-20T14:39:00.769Z,18.23
2018-02-20T14:41:30.808Z,19.03
2018-02-20T14:44:00.662Z,18.63
2018-02-20T14:46:30.592Z,19.13
2018-02-20T14:49:01.125Z,20.90
2018-02-20T14:51:31.797Z,21.50
2018-02-20T14:54:01.612Z,21.60
2018-02-20T14:56:32.162Z,21.33
2018-02-20T14:59:01.974Z,20.77
2018-02-20T15:01:32.506Z,21.33
2018-02-20T15:04:03.236Z,21.93
2018-02-20T15:06:33.102Z,28.20
2018-02-20T15:09:02.894Z,26.47
2018-02-20T15:11:33.491Z,23.50
2018-02-20T15:14:03.235Z,20.50
2018-02-20T15:16:33.520Z,19.13
2018-02-20T15:19:03.320Z,19.27
2018-02-20T15:21:33.833Z,20.95
2018-02-20T15:24:03.816Z,19.53
2018-02-20T15:26:33.629Z,20.65
2018-02-20T15:29:03.525Z,20.93
2018-02-20T15:31:33.428Z,20.87
2018-02-20T15:34:03.288Z,22.83
2018-02-20T15:36:34.577Z,23.23
2018-02-20T15:39:04.535Z,21.77
2018-02-20T15:41:34.428Z,24.17
2018-02-20T15:44:04.147Z,23.67
2018-02-20T15:46:34.027Z,24.77
2018-02-20T15:49:03.845Z,23.80
2018-02-20T15:51:34.291Z,21.05
2018-02-20T15:54:04.324Z,24.17
2018-02-20T15:56:34.189Z,25.08
2018-02-20T15:59:04.020Z,22.87
2018-02-20T16:01:34.000Z,23.07
2018-02-20T16:04:04.422Z,23.30
2018-02-20T16:06:35.183Z,21.62
2018-02-20T16:09:05.328Z,22.80
2018-02-20T16:11:35.205Z,21.37
2018-02-20T16:14:05.055Z,21.83
2018-02-20T16:16:35.034Z,21.35
2018-02-20T16:19:04.824Z,20.80
2018-02-20T16:21:35.425Z,22.23
2018-02-20T16:24:05.636Z,21.37
2018-02-20T16:26:36.231Z,21.73
2018-02-20T16:29:06.098Z,21.87
2018-02-20T16:31:36.218Z,21.33
2018-02-20T16:34:06.141Z,21.90
2018-02-20T16:36:36.629Z,22.87
2018-02-20T16:39:07.021Z,22.60
2018-02-20T16:41:36.916Z,22.25
2018-02-20T16:44:07.452Z,21.27
2018-02-20T16:46:37.442Z,22.60
2018-02-20T16:49:07.231Z,21.08
2018-02-20T16:51:37.110Z,21.65
2018-02-20T16:54:07.115Z,22.23
2018-02-20T16:56:36.911Z,21.45
2018-02-20T16:59:06.679Z,23.10
2018-02-20T17:01:36.752Z,22.02
2018-02-20T17:04:07.357Z,22.45
2018-02-20T17:06:37.885Z,22.73
2018-02-20T17:09:07.707Z,23.23
2018-02-20T17:11:37.624Z,22.52
2018-02-20T17:14:07.489Z,23.52
2018-02-20T17:16:37.604Z,21.98
2018-02-20T17:19:07.439Z,24.25
2018-02-20T17:21:37.325Z,22.80
2018-02-20T17:24:07.401Z,23.83
2018-02-20T17:26:37.215Z,22.58
2018-02-20T17:29:07.056Z,22.90
2018-02-20T17:31:38.048Z,23.80
2018-02-20T17:34:07.918Z,23.62
2018-02-20T17:36:38.102Z,23.10
2018-02-20T17:39:08.060Z,24.90
2018-02-20T17:41:38.140Z,23.38
2018-02-20T17:44:08.010Z,23.48
2018-02-20T17:46:38.292Z,24.83
2018-02-20T17:49:08.871Z,25.52
2018-02-20T17:51:38.787Z,25.92
2018-02-20T17:54:08.826Z,24.33
2018-02-20T17:56:39.451Z,23.60
2018-02-20T17:59:09.430Z,25.73
2018-02-20T18:01:39.257Z,24.10
2018-02-20T18:04:09.114Z,23.87
2018-02-20T18:06:38.944Z,25.30
2018-02-20T18:09:08.913Z,25.48
2018-02-20T18:11:38.737Z,24.02
2018-02-20T18:14:08.751Z,24.30
2018-02-20T18:16:38.718Z,25.12
2018-02-20T18:19:08.546Z,24.17
2018-02-20T18:21:38.500Z,26.60
2018-02-20T18:24:08.413Z,24.55
2018-02-20T18:26:38.960Z,26.40
2018-02-20T18:29:09.682Z,25.62
2018-02-20T18:31:39.730Z,25.30
2018-02-20T18:34:10.433Z,24.87
2018-02-20T18:36:41.527Z,25.40
2018-02-20T18:39:11.455Z,24.35
2018-02-20T18:41:41.997Z,25.08
2018-02-20T18:44:12.609Z,25.55
2018-02-20T18:46:42.957Z,25.70
2018-02-20T18:49:12.749Z,27.17
2018-02-20T18:51:43.401Z,25.77
2018-02-20T18:54:13.748Z,26.62
2018-02-20T18:56:43.593Z,26.00
2018-02-20T18:59:14.690Z,27.40
2018-02-20T19:01:44.413Z,26.25
2018-02-20T19:04:14.664Z,27.00
2018-02-20T19:06:44.513Z,27.60
2018-02-20T19:09:14.548Z,26.83
2018-02-20T19:11:44.488Z,27.27
2018-02-20T19:14:14.410Z,27.58
2018-02-20T19:16:45.193Z,26.37
2018-02-20T19:19:15.075Z,27.33
2018-02-20T19:21:45.938Z,25.88
2018-02-20T19:24:15.754Z,27.08
2018-02-20T19:26:45.780Z,26.67
2018-02-20T19:29:16.585Z,26.37
2018-02-20T19:31:46.743Z,26.83
2018-02-20T19:34:17.339Z,28.10
2018-02-20T19:36:48.862Z,26.85
2018-02-20T19:39:19.396Z,29.08
2018-02-20T19:44:31.442Z,28.35
2018-02-20T19:47:02.392Z,28.48
2018-02-20T19:49:33.052Z,30.12
2018-02-20T19:52:03.101Z,29.67
2018-02-20T19:54:32.890Z,30.83
2018-02-20T19:57:02.714Z,30.10
2018-02-20T19:59:33.580Z,29.85
2018-02-20T20:02:03.770Z,30.33
2018-02-20T20:04:33.592Z,29.73
2018-02-20T20:07:04.909Z,30.88
2018-02-20T20:09:34.721Z,30.77
2018-02-20T20:12:04.924Z,30.62
2018-02-20T20:14:35.157Z,29.12
2018-02-20T20:17:05.170Z,28.00
2018-02-20T20:19:35.057Z,31.02
2018-02-20T20:22:04.957Z,31.35
2018-02-20T20:24:35.933Z,31.67
2018-02-20T20:27:06.450Z,30.40
2018-02-20T20:29:36.240Z,30.25
2018-02-20T20:32:06.131Z,30.33
2018-02-20T20:34:36.935Z,30.67
2018-02-20T20:37:09.446Z,30.17
2018-02-20T20:39:39.333Z,29.73
2018-02-20T20:42:09.309Z,31.62
2018-02-20T20:44:39.726Z,32.17
2018-02-20T20:47:09.504Z,32.10
2018-02-20T20:49:39.526Z,31.00
2018-02-20T20:52:11.028Z,32.17
2018-02-20T20:54:41.847Z,31.92
2018-02-20T20:57:13.343Z,31.98
2018-02-20T20:59:43.952Z,32.08
2018-02-20T21:02:13.795Z,31.15
2018-02-20T21:04:44.415Z,30.23
2018-02-20T21:07:14.168Z,30.05
2018-02-20T21:09:44.725Z,30.40
2018-02-20T21:12:14.517Z,29.83
2018-02-20T21:14:44.309Z,31.20
2018-02-20T21:17:14.098Z,31.23
2018-02-20T21:19:43.872Z,31.75
2018-02-20T21:22:13.677Z,30.20
2018-02-20T21:24:43.786Z,32.22
2018-02-20T21:27:13.642Z,30.60
2018-02-20T21:29:44.116Z,30.50
2018-02-20T21:32:14.653Z,32.20
2018-02-20T21:34:45.324Z,31.85
2018-02-20T21:37:15.120Z,32.17
2018-02-20T21:39:45.808Z,33.13
2018-02-20T21:42:15.793Z,31.02
2018-02-20T21:44:46.381Z,32.95
2018-02-20T21:47:16.400Z,32.55
2018-02-20T21:49:46.186Z,31.27
2018-02-20T21:52:16.769Z,32.17
2018-02-20T21:54:46.590Z,33.67
2018-02-20T21:57:17.052Z,34.50
2018-02-20T21:59:46.951Z,34.47
2018-02-20T22:02:16.847Z,33.88
2018-02-20T22:04:46.665Z,34.63
2018-02-20T22:07:17.443Z,33.58
2018-02-20T22:09:47.259Z,35.95
2018-02-20T22:12:17.159Z,35.47
2018-02-20T22:14:47.640Z,36.50
2018-02-20T22:17:17.441Z,35.90
2018-02-20T22:19:47.408Z,34.97
2018-02-20T22:22:17.312Z,35.08
2018-02-20T22:24:47.093Z,36.28
2018-02-20T22:27:17.922Z,35.88
2018-02-20T22:29:47.759Z,36.13
2018-02-20T22:32:17.580Z,37.42
2018-02-20T22:34:47.344Z,36.97
2018-02-20T22:37:17.423Z,36.75
2018-02-20T22:39:47.255Z,37.63
2018-02-20T22:42:17.230Z,37.95
2018-02-20T22:44:47.131Z,37.13
2018-02-20T22:47:17.753Z,36.58
2018-02-20T22:49:47.575Z,36.10
2018-02-20T22:52:17.734Z,37.00
2018-02-20T22:54:47.476Z,38.83
2018-02-20T22:57:18.224Z,37.85
2018-02-20T22:59:48.052Z,37.95
2018-02-20T23:02:17.902Z,37.13
2018-02-20T23:04:47.869Z,38.58
2018-02-20T23:07:17.797Z,38.20
2018-02-20T23:09:48.347Z,37.90
2018-02-20T23:12:18.076Z,38.85
2018-02-20T23:14:47.908Z,39.97
2018-02-20T23:17:17.692Z,38.50
2018-02-20T23:19:48.440Z,39.65
2018-02-20T23:22:19.011Z,38.28
2018-02-20T23:24:48.757Z,38.35
2018-02-20T23:27:18.494Z,38.28
2018-02-20T23:29:48.245Z,41.60
2018-02-20T23:32:18.055Z,40.25
2018-02-20T23:34:47.867Z,38.70
2018-02-20T23:37:17.578Z,39.15
2018-02-20T23:39:47.455Z,38.67
2018-02-20T23:42:17.938Z,39.53
2018-02-20T23:44:47.793Z,40.95
2018-02-20T23:47:17.542Z,42.75
2018-02-20T23:49:48.146Z,39.53
2018-02-20T23:52:17.877Z,40.40
2018-02-20T23:54:48.033Z,40.92
2018-02-20T23:57:18.541Z,41.00
2018-02-20T23:59:48.287Z,39.78
